createdAt,value
2024-01-18T00:00:59.596Z,3.65
2024-01-18T00:03:42.325Z,3.25
2024-01-18T00:06:10.904Z,3.22
2024-01-18T00:08:38.606Z,3.20
2024-01-18T00:11:06.714Z,3.50
2024-01-18T00:13:34.356Z,3.15
2024-01-18T00:16:02.390Z,3.70
2024-01-18T00:18:30.244Z,2.85
2024-01-18T00:20:58.250Z,2.85
2024-01-18T00:23:25.824Z,3.20
2024-01-18T00:25:53.865Z,3.25
2024-01-18T00:28:21.519Z,3.20
2024-01-18T00:30:49.422Z,3.35
2024-01-18T00:33:17.993Z,3.60
2024-01-18T00:35:45.943Z,4.43
2024-01-18T00:38:13.611Z,3.42
2024-01-18T00:40:43.084Z,3.58
2024-01-18T00:43:11.419Z,3.67
2024-01-18T00:45:39.496Z,3.60
2024-01-18T00:48:07.442Z,3.38
2024-01-18T00:50:35.332Z,3.58
2024-01-18T00:53:02.915Z,3.47
2024-01-18T00:55:33.328Z,3.42
2024-01-18T00:58:02.079Z,3.38
2024-01-18T01:00:30.074Z,3.70
2024-01-18T01:02:57.813Z,3.40
2024-01-18T01:05:25.784Z,3.72
2024-01-18T01:07:53.495Z,3.88
2024-01-18T01:10:21.456Z,3.30
2024-01-18T01:12:49.016Z,3.72
2024-01-18T01:15:17.026Z,3.22
2024-01-18T01:17:44.873Z,3.25
2024-01-18T01:20:13.054Z,3.22
2024-01-18T01:22:40.697Z,3.45
2024-01-18T01:25:09.803Z,3.40
2024-01-18T01:27:37.407Z,3.17
2024-01-18T01:30:05.798Z,3.33
2024-01-18T01:32:33.436Z,3.17
2024-01-18T01:35:01.253Z,3.00
2024-01-18T01:37:28.912Z,3.10
2024-01-18T01:39:56.843Z,3.05
2024-01-18T01:42:24.506Z,3.17
2024-01-18T01:44:54.731Z,3.13
2024-01-18T01:47:22.795Z,3.30
2024-01-18T01:49:52.096Z,3.70
2024-01-18T01:52:20.031Z,3.47
2024-01-18T01:54:48.380Z,3.63
2024-01-18T01:57:17.939Z,2.97
2024-01-18T01:59:48.880Z,3.28
2024-01-18T02:02:17.800Z,3.60
2024-01-18T02:04:45.979Z,2.70
2024-01-18T02:07:13.812Z,3.42
2024-01-18T02:09:42.543Z,3.33
2024-01-18T02:12:12.289Z,3.55
2024-01-18T02:14:40.550Z,3.30
2024-01-18T02:17:08.311Z,3.60
2024-01-18T02:19:36.410Z,3.50
2024-01-18T02:22:08.416Z,3.53
2024-01-18T02:24:42.945Z,3.20
2024-01-18T02:27:10.601Z,3.53
2024-01-18T02:29:38.884Z,3.30
2024-01-18T02:32:06.773Z,3.50
2024-01-18T02:34:40.301Z,3.63
2024-01-18T02:37:08.978Z,4.32
2024-01-18T02:39:37.463Z,4.10
2024-01-18T02:42:05.460Z,4.25
2024-01-18T02:44:33.505Z,4.13
2024-01-18T02:47:01.061Z,4.78
2024-01-18T02:49:29.170Z,4.45
2024-01-18T02:51:57.370Z,4.07
2024-01-18T02:54:25.248Z,4.18
2024-01-18T02:56:52.953Z,3.78
2024-01-18T02:59:21.228Z,4.13
2024-01-18T03:01:48.959Z,4.10
2024-01-18T03:04:16.920Z,4.25
2024-01-18T03:06:45.578Z,3.58
2024-01-18T03:09:15.289Z,4.50
2024-01-18T03:11:43.044Z,3.90
2024-01-18T03:14:10.863Z,3.65
2024-01-18T03:16:43.763Z,4.05
2024-01-18T03:19:12.504Z,3.88
2024-01-18T03:21:41.033Z,3.80
2024-01-18T03:24:09.375Z,4.03
2024-01-18T03:26:37.133Z,3.90
2024-01-18T03:29:05.056Z,3.72
2024-01-18T03:31:32.775Z,4.00
2024-01-18T03:34:00.995Z,4.15
2024-01-18T03:36:28.847Z,3.63
2024-01-18T03:38:56.717Z,4.03
2024-01-18T03:41:24.343Z,4.05
2024-01-18T03:43:52.288Z,3.90
2024-01-18T03:46:20.279Z,4.10
2024-01-18T03:48:48.373Z,4.30
2024-01-18T03:51:16.389Z,4.05
2024-01-18T03:53:44.906Z,3.97
2024-01-18T03:56:13.453Z,4.30
2024-01-18T03:58:43.522Z,3.78
2024-01-18T04:01:11.295Z,3.72
2024-01-18T04:03:39.571Z,4.47
2024-01-18T04:06:07.384Z,3.80
2024-01-18T04:08:35.297Z,3.80
2024-01-18T04:11:03.459Z,4.28
2024-01-18T04:13:31.456Z,3.83
2024-01-18T04:15:59.070Z,4.07
2024-01-18T04:18:27.085Z,3.90
2024-01-18T04:20:54.741Z,3.67
2024-01-18T04:23:22.954Z,4.13
2024-01-18T04:25:53.490Z,4.00
2024-01-18T04:28:23.210Z,3.63
2024-01-18T04:30:50.909Z,4.00
2024-01-18T04:33:20.191Z,3.60
2024-01-18T04:35:48.952Z,3.63
2024-01-18T04:38:17.145Z,3.38
2024-01-18T04:40:44.939Z,3.85
2024-01-18T04:43:12.811Z,4.20
2024-01-18T04:45:40.480Z,3.97
2024-01-18T04:48:08.465Z,3.58
2024-01-18T04:50:36.123Z,3.42
2024-01-18T04:53:04.102Z,3.42
2024-01-18T04:55:32.329Z,4.10
2024-01-18T04:58:00.395Z,4.07
2024-01-18T05:00:28.127Z,3.83
2024-01-18T05:02:56.557Z,3.60
2024-01-18T05:05:24.773Z,4.20
2024-01-18T05:07:52.975Z,3.90
2024-01-18T05:10:20.602Z,3.55
2024-01-18T05:12:49.799Z,3.90
2024-01-18T05:15:19.576Z,3.65
2024-01-18T05:17:52.046Z,3.42
2024-01-18T05:20:19.606Z,3.70
2024-01-18T05:22:47.732Z,3.53
2024-01-18T05:25:15.424Z,3.80
2024-01-18T05:27:43.659Z,4.07
2024-01-18T05:30:12.046Z,3.58
2024-01-18T05:32:39.899Z,3.70
2024-01-18T05:35:07.862Z,4.03
2024-01-18T05:37:35.831Z,3.28
2024-01-18T05:40:03.624Z,3.92
2024-01-18T05:42:31.555Z,3.83
2024-01-18T05:44:59.919Z,3.80
2024-01-18T05:47:27.840Z,3.33
2024-01-18T05:49:55.522Z,3.45
2024-01-18T05:52:23.396Z,3.60
2024-01-18T05:54:53.190Z,3.25
2024-01-18T05:57:21.229Z,4.20
2024-01-18T05:59:49.007Z,3.67
2024-01-18T06:02:16.870Z,2.95
2024-01-18T06:04:44.470Z,3.38
2024-01-18T06:07:12.356Z,3.83
2024-01-18T06:09:40.138Z,4.00
2024-01-18T06:12:08.508Z,3.65
2024-01-18T06:14:36.078Z,3.70
2024-01-18T06:17:04.078Z,3.58
2024-01-18T06:19:31.909Z,3.83
2024-01-18T06:22:00.103Z,3.97
2024-01-18T06:24:29.886Z,3.40
2024-01-18T06:26:58.156Z,5.00
2024-01-18T06:29:29.119Z,4.78
2024-01-18T06:31:57.170Z,5.72
2024-01-18T06:34:24.786Z,5.10
2024-01-18T06:36:52.903Z,3.80
2024-01-18T06:39:20.888Z,3.30
2024-01-18T06:41:48.753Z,3.50
2024-01-18T06:44:16.369Z,3.75
2024-01-18T06:46:44.191Z,4.18
2024-01-18T06:49:13.042Z,3.28
2024-01-18T06:51:41.658Z,4.00
2024-01-18T06:54:09.346Z,4.10
2024-01-18T06:56:38.789Z,3.38
2024-01-18T06:59:06.782Z,3.88
2024-01-18T07:01:34.905Z,3.90
2024-01-18T07:04:03.418Z,3.70
2024-01-18T07:06:31.740Z,4.13
2024-01-18T07:08:59.323Z,3.83
2024-01-18T07:11:27.219Z,4.10
2024-01-18T07:13:55.000Z,3.83
2024-01-18T07:16:23.091Z,4.25
2024-01-18T07:18:50.880Z,4.32
2024-01-18T07:21:18.797Z,4.47
2024-01-18T07:23:46.478Z,4.60
2024-01-18T07:26:14.386Z,4.50
2024-01-18T07:28:41.912Z,4.47
2024-01-18T07:31:09.868Z,4.53
2024-01-18T07:33:38.588Z,4.53
2024-01-18T07:36:07.348Z,4.38
2024-01-18T07:38:34.992Z,4.80
2024-01-18T07:41:03.381Z,4.85
2024-01-18T07:43:30.948Z,4.82
2024-01-18T07:45:58.925Z,4.90
2024-01-18T07:48:26.890Z,5.38
2024-01-18T07:50:54.887Z,5.30
2024-01-18T07:53:22.686Z,4.93
2024-01-18T07:55:51.479Z,4.70
2024-01-18T07:58:19.015Z,4.82
2024-01-18T08:00:47.074Z,6.22
2024-01-18T08:03:14.730Z,5.13
2024-01-18T08:05:42.692Z,4.88
2024-01-18T08:08:10.337Z,5.38
2024-01-18T08:10:38.181Z,5.45
2024-01-18T08:13:05.930Z,5.15
2024-01-18T08:15:33.971Z,5.50
2024-01-18T08:18:01.908Z,5.45
2024-01-18T08:20:30.010Z,5.72
2024-01-18T08:22:57.637Z,5.90
2024-01-18T08:25:25.576Z,5.95
2024-01-18T08:27:57.599Z,5.45
2024-01-18T08:30:26.514Z,5.53
2024-01-18T08:32:54.185Z,5.82
2024-01-18T08:35:22.170Z,5.60
2024-01-18T08:37:49.819Z,5.80
2024-01-18T08:40:18.034Z,5.90
2024-01-18T08:42:47.561Z,6.50
2024-01-18T08:45:15.856Z,5.32
2024-01-18T08:47:43.570Z,5.90
2024-01-18T08:50:11.842Z,6.15
2024-01-18T08:52:39.529Z,6.28
2024-01-18T08:55:07.522Z,6.72
2024-01-18T08:57:35.611Z,7.38
2024-01-18T09:00:06.381Z,5.35
2024-01-18T09:02:34.952Z,6.50
2024-01-18T09:05:03.140Z,5.20
2024-01-18T09:07:30.970Z,5.60
2024-01-18T09:09:58.847Z,6.28
2024-01-18T09:12:27.191Z,6.20
2024-01-18T09:14:55.400Z,6.00
2024-01-18T09:17:23.039Z,5.55
2024-01-18T09:19:55.138Z,6.18
2024-01-18T09:22:23.331Z,6.32
2024-01-18T09:24:54.350Z,6.20
2024-01-18T09:27:24.213Z,6.13
2024-01-18T09:29:52.277Z,6.00
2024-01-18T09:32:21.347Z,5.70
2024-01-18T09:34:49.586Z,5.88
2024-01-18T09:37:19.088Z,5.53
2024-01-18T09:39:47.723Z,5.57
2024-01-18T09:42:18.103Z,5.60
2024-01-18T09:44:50.406Z,5.77
2024-01-18T09:47:19.114Z,5.28
2024-01-18T09:49:48.023Z,5.80
2024-01-18T09:52:15.992Z,6.22
2024-01-18T09:54:44.172Z,6.55
2024-01-18T09:57:17.590Z,5.22
2024-01-18T09:59:48.298Z,5.70
2024-01-18T10:02:16.095Z,4.78
2024-01-18T10:04:44.397Z,5.43
2024-01-18T10:07:13.385Z,4.68
2024-01-18T10:09:41.370Z,4.80
2024-01-18T10:12:11.035Z,5.10
2024-01-18T10:14:45.030Z,5.70
2024-01-18T10:17:24.600Z,5.15
2024-01-18T10:20:02.127Z,5.72
2024-01-18T10:22:30.177Z,6.25
2024-01-18T10:24:58.178Z,6.18
2024-01-18T10:27:26.804Z,6.07
2024-01-18T10:29:55.911Z,6.07
2024-01-18T10:32:23.560Z,5.70
2024-01-18T10:34:53.005Z,5.40
2024-01-18T10:37:20.756Z,5.30
2024-01-18T10:39:49.501Z,5.28
2024-01-18T10:42:19.001Z,5.03
2024-01-18T10:44:50.633Z,5.40
2024-01-18T10:47:18.265Z,5.53
2024-01-18T10:49:46.828Z,5.28
2024-01-18T10:52:14.900Z,5.97
2024-01-18T10:54:49.943Z,5.93
2024-01-18T10:57:25.612Z,5.15
2024-01-18T10:59:54.275Z,5.45
2024-01-18T11:02:22.960Z,5.47
2024-01-18T11:04:56.056Z,6.03
2024-01-18T11:07:24.665Z,6.07
2024-01-18T11:09:54.872Z,5.40
2024-01-18T11:12:23.837Z,5.20
2024-01-18T11:14:52.858Z,5.47
2024-01-18T11:17:22.902Z,5.15
2024-01-18T11:19:51.850Z,5.47
2024-01-18T11:22:28.016Z,5.80
2024-01-18T11:25:13.941Z,5.82
2024-01-18T11:27:42.885Z,5.30
2024-01-18T11:30:32.714Z,5.50
2024-01-18T11:33:00.574Z,5.38
2024-01-18T11:35:28.824Z,5.53
2024-01-18T11:38:21.777Z,5.90
2024-01-18T11:41:27.890Z,6.18
2024-01-18T11:43:57.982Z,6.50
2024-01-18T11:46:40.507Z,5.13
2024-01-18T11:49:09.063Z,6.20
2024-01-18T11:51:38.677Z,5.05
2024-01-18T11:54:07.009Z,6.03
2024-01-18T11:56:38.319Z,5.70
2024-01-18T11:59:06.416Z,6.55
2024-01-18T12:01:34.439Z,5.63
2024-01-18T12:04:02.223Z,6.65
2024-01-18T12:06:32.655Z,5.85
2024-01-18T12:09:06.044Z,5.45
2024-01-18T12:11:39.797Z,5.82
2024-01-18T12:14:07.988Z,6.40
2024-01-18T12:16:35.974Z,6.00
2024-01-18T12:19:06.952Z,6.88
2024-01-18T12:21:34.887Z,5.97
2024-01-18T12:24:02.517Z,6.22
2024-01-18T12:26:31.537Z,6.38
2024-01-18T12:28:59.459Z,6.70
2024-01-18T12:31:27.394Z,6.00
2024-01-18T12:33:55.786Z,6.10
2024-01-18T12:36:24.038Z,6.45
2024-01-18T12:38:53.679Z,6.70
2024-01-18T12:41:23.947Z,6.45
2024-01-18T12:43:51.848Z,6.90
2024-01-18T12:46:19.860Z,6.45
2024-01-18T12:48:49.000Z,6.40
2024-01-18T12:51:17.160Z,6.70
2024-01-18T12:53:45.354Z,6.35
2024-01-18T12:56:13.986Z,6.55
2024-01-18T12:58:42.694Z,6.72
2024-01-18T13:01:10.756Z,6.10
2024-01-18T13:03:38.802Z,5.55
2024-01-18T13:06:07.679Z,5.32
2024-01-18T13:08:39.083Z,4.60
2024-01-18T13:11:07.258Z,4.35
2024-01-18T13:13:35.585Z,4.65
2024-01-18T13:16:04.961Z,4.25
2024-01-18T13:18:32.830Z,4.60
2024-01-18T13:21:00.678Z,5.32
2024-01-18T13:23:28.606Z,4.68
2024-01-18T13:25:56.437Z,4.70
2024-01-18T13:28:24.010Z,5.70
2024-01-18T13:30:52.103Z,4.28
2024-01-18T13:33:20.352Z,4.55
2024-01-18T13:35:48.949Z,4.47
2024-01-18T13:38:16.674Z,5.00
2024-01-18T13:40:44.592Z,4.85
2024-01-18T13:43:12.430Z,5.13
2024-01-18T13:45:40.340Z,4.90
2024-01-18T13:48:08.454Z,4.78
2024-01-18T13:50:36.404Z,4.47
2024-01-18T13:53:04.994Z,4.38
2024-01-18T13:55:32.989Z,4.15
2024-01-18T13:58:00.986Z,4.60
2024-01-18T14:00:29.176Z,4.30
2024-01-18T14:02:56.714Z,4.30
2024-01-18T14:05:24.725Z,4.50
2024-01-18T14:07:52.520Z,4.20
2024-01-18T14:10:20.739Z,4.00
2024-01-18T14:12:48.449Z,4.60
2024-01-18T14:15:18.704Z,4.10
2024-01-18T14:17:46.469Z,4.47
2024-01-18T14:20:17.667Z,4.32
2024-01-18T14:22:46.263Z,4.40
2024-01-18T14:25:14.545Z,4.50
2024-01-18T14:27:42.496Z,4.40
2024-01-18T14:30:12.049Z,4.60
2024-01-18T14:32:40.192Z,4.97
2024-01-18T14:35:10.523Z,4.65
2024-01-18T14:37:38.497Z,4.57
2024-01-18T14:40:11.949Z,4.50
2024-01-18T14:42:40.389Z,4.43
2024-01-18T14:45:08.966Z,4.63
2024-01-18T14:47:36.732Z,4.30
2024-01-18T14:50:05.734Z,3.90
2024-01-18T14:52:33.330Z,4.38
2024-01-18T14:55:01.326Z,4.10
2024-01-18T14:57:29.481Z,3.92
2024-01-18T14:59:57.977Z,4.75
2024-01-18T15:02:25.706Z,4.68
2024-01-18T15:04:53.564Z,4.50
2024-01-18T15:07:21.518Z,4.63
2024-01-18T15:09:49.547Z,4.60
2024-01-18T15:12:18.309Z,4.10
2024-01-18T15:14:47.833Z,4.55
2024-01-18T15:17:15.457Z,4.18
2024-01-18T15:19:43.390Z,4.13
2024-01-18T15:22:11.157Z,4.13
2024-01-18T15:24:39.132Z,4.05
2024-01-18T15:27:07.766Z,4.32
2024-01-18T15:29:37.690Z,4.65
2024-01-18T15:32:05.733Z,4.30
2024-01-18T15:34:35.736Z,4.80
2024-01-18T15:37:04.063Z,4.88
2024-01-18T15:39:32.134Z,4.18
2024-01-18T15:41:59.788Z,4.50
2024-01-18T15:44:31.140Z,4.47
2024-01-18T15:47:04.963Z,3.78
2024-01-18T15:49:33.497Z,4.13
2024-01-18T15:52:01.994Z,3.53
2024-01-18T15:54:30.419Z,3.70
2024-01-18T15:56:59.493Z,3.67
2024-01-18T15:59:27.498Z,3.85
2024-01-18T16:01:55.077Z,4.03
2024-01-18T16:04:22.998Z,3.28
2024-01-18T16:06:50.820Z,4.00
2024-01-18T16:09:18.728Z,3.75
2024-01-18T16:11:46.926Z,3.65
2024-01-18T16:14:14.811Z,4.28
2024-01-18T16:16:42.395Z,3.90
2024-01-18T16:19:10.387Z,4.13
2024-01-18T16:21:38.086Z,4.95
2024-01-18T16:24:09.082Z,4.40
2024-01-18T16:26:36.717Z,4.20
2024-01-18T16:29:04.793Z,3.70
2024-01-18T16:31:32.358Z,4.55
2024-01-18T16:34:00.339Z,4.35
2024-01-18T16:36:28.019Z,4.07
2024-01-18T16:38:55.871Z,3.83
2024-01-18T16:41:24.811Z,4.07
2024-01-18T16:43:53.337Z,4.07
2024-01-18T16:46:22.191Z,4.13
2024-01-18T16:48:50.261Z,4.85
2024-01-18T16:51:18.665Z,4.15
2024-01-18T16:53:47.167Z,4.30
2024-01-18T16:56:14.864Z,4.15
2024-01-18T16:58:43.276Z,4.40
2024-01-18T17:01:11.595Z,4.03
2024-01-18T17:03:39.494Z,4.13
2024-01-18T17:06:07.680Z,4.30
2024-01-18T17:08:35.742Z,4.25
2024-01-18T17:11:03.967Z,4.82
2024-01-18T17:13:34.972Z,5.10
2024-01-18T17:16:02.720Z,4.10
2024-01-18T17:18:30.581Z,5.03
2024-01-18T17:20:58.327Z,4.85
2024-01-18T17:23:26.247Z,4.90
2024-01-18T17:25:53.932Z,6.05
2024-01-18T17:28:21.851Z,5.00
2024-01-18T17:30:49.401Z,5.10
2024-01-18T17:33:17.439Z,5.32
2024-01-18T17:35:45.127Z,4.82
2024-01-18T17:38:13.114Z,5.55
2024-01-18T17:40:40.720Z,4.88
2024-01-18T17:43:08.833Z,5.18
2024-01-18T17:45:36.625Z,5.00
2024-01-18T17:48:04.651Z,4.72
2024-01-18T17:50:32.472Z,5.75
2024-01-18T17:53:00.441Z,5.18
2024-01-18T17:55:29.445Z,5.57
2024-01-18T17:57:57.260Z,4.97
2024-01-18T18:00:30.091Z,5.28
2024-01-18T18:03:04.626Z,5.18
2024-01-18T18:05:32.370Z,5.25
2024-01-18T18:08:00.878Z,5.32
2024-01-18T18:10:28.617Z,5.35
2024-01-18T18:12:56.476Z,5.95
2024-01-18T18:15:24.171Z,5.47
2024-01-18T18:17:52.246Z,5.18
2024-01-18T18:20:19.971Z,5.50
2024-01-18T18:22:48.391Z,5.63
2024-01-18T18:25:16.053Z,6.15
2024-01-18T18:27:43.888Z,5.72
2024-01-18T18:30:16.935Z,6.18
2024-01-18T18:32:50.327Z,6.20
2024-01-18T18:35:18.668Z,6.20
2024-01-18T18:37:46.711Z,6.30
2024-01-18T18:40:14.373Z,6.85
2024-01-18T18:42:43.676Z,7.82
2024-01-18T18:45:11.370Z,7.68
2024-01-18T18:47:39.378Z,7.32
2024-01-18T18:50:08.456Z,6.97
2024-01-18T18:52:39.274Z,7.95
2024-01-18T18:55:07.380Z,8.13
2024-01-18T18:57:35.644Z,8.30
2024-01-18T19:00:05.574Z,8.23
2024-01-18T19:02:37.166Z,8.63
2024-01-18T19:05:08.230Z,8.77
2024-01-18T19:07:38.462Z,7.63
2024-01-18T19:10:06.990Z,6.88
2024-01-18T19:12:35.575Z,8.43
2024-01-18T19:15:03.737Z,7.47
2024-01-18T19:17:32.527Z,7.20
2024-01-18T19:20:00.247Z,7.80
2024-01-18T19:22:28.428Z,8.15
2024-01-18T19:25:00.041Z,9.02
2024-01-18T19:27:31.087Z,8.68
2024-01-18T19:29:59.704Z,9.13
2024-01-18T19:32:27.914Z,8.00
2024-01-18T19:34:57.943Z,8.48
2024-01-18T19:37:25.938Z,9.88
2024-01-18T19:39:53.797Z,9.10
2024-01-18T19:42:24.080Z,8.88
2024-01-18T19:44:53.942Z,9.40
2024-01-18T19:47:22.094Z,8.93
2024-01-18T19:49:51.025Z,9.15
2024-01-18T19:52:22.748Z,11.00
2024-01-18T19:54:50.684Z,9.25
2024-01-18T19:57:18.739Z,8.75
2024-01-18T19:59:46.762Z,8.65
2024-01-18T20:02:16.202Z,7.60
2024-01-18T20:04:44.124Z,8.52
2024-01-18T20:07:12.231Z,8.68
2024-01-18T20:09:39.858Z,9.10
2024-01-18T20:12:07.939Z,8.15
2024-01-18T20:14:35.688Z,8.43
2024-01-18T20:17:03.921Z,9.77
2024-01-18T20:19:31.574Z,8.85
2024-01-18T20:21:59.484Z,8.77
2024-01-18T20:24:34.565Z,9.32
2024-01-18T20:27:04.303Z,8.40
2024-01-18T20:29:32.185Z,9.00
2024-01-18T20:32:00.429Z,8.65
2024-01-18T20:34:28.101Z,10.20
2024-01-18T20:36:56.100Z,9.00
2024-01-18T20:39:24.052Z,9.05
2024-01-18T20:41:54.981Z,9.80
2024-01-18T20:44:22.883Z,9.13
2024-01-18T20:46:50.890Z,8.30
2024-01-18T20:49:18.539Z,9.55
2024-01-18T20:51:47.487Z,9.25
2024-01-18T20:54:15.606Z,9.07
2024-01-18T20:56:45.516Z,8.50
2024-01-18T20:59:13.320Z,9.32
2024-01-18T21:01:41.513Z,9.57
2024-01-18T21:04:09.600Z,9.38
2024-01-18T21:06:37.765Z,9.85
2024-01-18T21:09:05.542Z,9.77
2024-01-18T21:11:33.443Z,9.05
2024-01-18T21:14:01.484Z,9.57
2024-01-18T21:16:29.472Z,9.68
2024-01-18T21:18:58.165Z,9.60
2024-01-18T21:21:26.260Z,9.65
2024-01-18T21:23:54.328Z,10.02
2024-01-18T21:26:22.298Z,10.52
2024-01-18T21:28:50.070Z,9.68
2024-01-18T21:31:18.824Z,9.05
2024-01-18T21:33:47.518Z,9.95
2024-01-18T21:36:15.646Z,9.18
2024-01-18T21:38:43.462Z,9.30
2024-01-18T21:41:11.374Z,8.73
2024-01-18T21:43:39.316Z,8.98
2024-01-18T21:46:07.839Z,9.68
2024-01-18T21:48:35.617Z,8.93
2024-01-18T21:51:05.070Z,9.15
2024-01-18T21:53:35.801Z,8.80
2024-01-18T21:56:05.108Z,8.98
2024-01-18T21:58:33.340Z,8.38
2024-01-18T22:01:01.858Z,8.32
2024-01-18T22:03:29.903Z,8.57
2024-01-18T22:05:57.842Z,8.07
2024-01-18T22:08:26.141Z,7.63
2024-01-18T22:10:54.184Z,7.63
2024-01-18T22:13:23.017Z,8.20
2024-01-18T22:15:53.086Z,7.95
2024-01-18T22:18:20.814Z,7.85
2024-01-18T22:20:48.801Z,8.73
2024-01-18T22:23:16.665Z,7.68
2024-01-18T22:25:45.013Z,7.32
2024-01-18T22:28:12.733Z,8.07
2024-01-18T22:30:40.553Z,7.70
2024-01-18T22:33:08.233Z,8.07
2024-01-18T22:35:36.349Z,8.07
2024-01-18T22:38:04.056Z,7.60
2024-01-18T22:40:31.976Z,7.40
2024-01-18T22:42:59.479Z,7.35
2024-01-18T22:45:27.795Z,7.15
2024-01-18T22:47:56.385Z,7.20
2024-01-18T22:50:24.539Z,7.18
2024-01-18T22:52:52.212Z,7.85
2024-01-18T22:55:20.011Z,7.07
2024-01-18T22:57:48.040Z,6.85
2024-01-18T23:00:18.229Z,7.47
2024-01-18T23:02:46.464Z,6.72
2024-01-18T23:05:14.580Z,6.32
2024-01-18T23:07:42.204Z,7.03
2024-01-18T23:10:11.315Z,6.82
2024-01-18T23:12:40.526Z,6.32
2024-01-18T23:15:09.225Z,6.45
2024-01-18T23:17:36.896Z,6.47
2024-01-18T23:20:05.452Z,7.22
2024-01-18T23:22:33.277Z,6.85
2024-01-18T23:25:01.180Z,6.15
2024-01-18T23:27:28.783Z,6.07
2024-01-18T23:29:56.709Z,7.10
2024-01-18T23:32:24.362Z,6.57
2024-01-18T23:34:52.611Z,6.53
2024-01-18T23:37:20.198Z,6.97
2024-01-18T23:39:49.211Z,5.78
2024-01-18T23:42:16.823Z,6.47
2024-01-18T23:44:45.328Z,6.82
2024-01-18T23:47:13.028Z,6.68
2024-01-18T23:49:40.863Z,6.68
2024-01-18T23:52:08.429Z,5.68
2024-01-18T23:54:36.253Z,6.20
2024-01-18T23:57:05.229Z,5.70
2024-01-18T23:59:33.330Z,6.47
